createdAt,value
2023-12-31T00:01:21.559Z,3.50
2023-12-31T00:04:51.125Z,3.49
2023-12-31T00:09:17.215Z,3.46
2023-12-31T00:11:57.892Z,3.46
2023-12-31T00:19:47.005Z,3.47
2023-12-31T00:22:38.320Z,3.50
2023-12-31T00:25:16.988Z,3.48
2023-12-31T00:28:22.995Z,3.43
2023-12-31T00:31:20.577Z,3.39
2023-12-31T00:33:57.046Z,3.38
2023-12-31T00:36:37.905Z,3.37
2023-12-31T00:39:19.131Z,3.37
2023-12-31T00:42:24.706Z,3.38
2023-12-31T00:44:52.877Z,3.39
2023-12-31T00:47:54.073Z,3.38
2023-12-31T00:51:13.137Z,3.37
2023-12-31T00:54:20.484Z,3.35
2023-12-31T00:58:29.479Z,3.33
2023-12-31T01:01:48.010Z,3.33
2023-12-31T01:05:15.306Z,3.33
2023-12-31T01:08:35.714Z,3.29
2023-12-31T01:14:21.654Z,3.22
2023-12-31T01:24:50.380Z,3.00
2023-12-31T01:28:53.523Z,2.93
2023-12-31T01:40:16.638Z,2.96
2023-12-31T01:42:56.717Z,2.96
2023-12-31T01:46:46.580Z,2.93
2023-12-31T01:49:48.904Z,2.94
2023-12-31T01:52:45.077Z,2.93
2023-12-31T01:55:24.345Z,2.92
2023-12-31T01:58:00.451Z,2.89
2023-12-31T02:02:49.274Z,2.86
2023-12-31T02:21:02.564Z,3.35
2023-12-31T02:27:10.304Z,3.36
2023-12-31T02:31:55.405Z,3.33
2023-12-31T02:34:29.501Z,3.33
2023-12-31T02:41:02.608Z,3.36
2023-12-31T02:43:48.411Z,3.36
2023-12-31T02:46:37.151Z,3.34
2023-12-31T02:49:33.580Z,3.32
2023-12-31T02:52:36.723Z,3.29
2023-12-31T02:55:09.520Z,3.26
2023-12-31T02:58:41.913Z,3.21
2023-12-31T03:01:15.449Z,3.17
2023-12-31T03:03:43.105Z,3.14
2023-12-31T03:06:15.421Z,3.12
2023-12-31T03:08:43.165Z,3.09
2023-12-31T03:15:12.599Z,3.05
2023-12-31T03:18:53.297Z,3.04
2023-12-31T03:20:54.626Z,3.05
2023-12-31T03:23:51.143Z,3.08
2023-12-31T03:26:32.200Z,3.10
2023-12-31T03:29:33.893Z,3.15
2023-12-31T03:32:42.275Z,3.20
2023-12-31T03:35:23.971Z,3.25
2023-12-31T03:38:06.924Z,3.28
2023-12-31T03:41:14.259Z,3.26
2023-12-31T05:07:55.531Z,2.61
2023-12-31T05:12:13.592Z,2.64
2023-12-31T05:32:59.912Z,2.61
2023-12-31T05:55:01.741Z,2.54
2023-12-31T07:28:20.384Z,3.46
2023-12-31T07:44:25.314Z,3.87
2023-12-31T07:47:21.384Z,3.97
2023-12-31T07:52:01.017Z,4.06
2023-12-31T08:52:48.509Z,5.47
2023-12-31T09:14:23.782Z,6.71
2023-12-31T09:36:51.743Z,8.03
2023-12-31T09:43:34.619Z,8.09
2023-12-31T10:01:31.435Z,8.71
2023-12-31T10:09:02.473Z,9.11
2023-12-31T10:13:02.386Z,9.32
2023-12-31T10:29:21.979Z,10.37
2023-12-31T10:41:58.853Z,10.78
2023-12-31T10:45:02.104Z,10.91
2023-12-31T10:48:13.417Z,11.01
2023-12-31T10:51:28.160Z,11.09
2023-12-31T10:54:19.853Z,11.12
2023-12-31T10:57:06.509Z,11.17
2023-12-31T11:04:42.307Z,11.31
2023-12-31T11:08:00.229Z,11.34
2023-12-31T11:11:01.576Z,11.37
2023-12-31T11:14:24.248Z,11.43
2023-12-31T11:32:03.100Z,11.75
2023-12-31T11:39:44.890Z,11.85
2023-12-31T11:42:41.010Z,11.92
2023-12-31T11:45:54.060Z,11.98
2023-12-31T11:48:47.033Z,12.03
2023-12-31T11:51:28.277Z,12.06
2023-12-31T11:54:03.606Z,12.11
2023-12-31T11:57:46.455Z,12.16
2023-12-31T12:00:36.994Z,12.14
2023-12-31T12:03:16.983Z,12.12
2023-12-31T12:05:56.596Z,12.10
2023-12-31T12:08:49.288Z,12.09
2023-12-31T12:11:51.914Z,12.10
2023-12-31T12:14:18.992Z,12.10
2023-12-31T12:16:48.962Z,12.09
2023-12-31T12:19:40.051Z,12.09
2023-12-31T12:22:15.996Z,12.12
2023-12-31T12:25:32.933Z,12.13
2023-12-31T12:29:00.905Z,12.17
2023-12-31T12:31:58.066Z,12.19
2023-12-31T12:34:38.834Z,12.22
2023-12-31T12:37:15.315Z,12.25
2023-12-31T12:39:44.609Z,12.26
2023-12-31T12:42:29.138Z,12.28
2023-12-31T12:44:58.861Z,12.30
2023-12-31T12:47:27.240Z,12.28
2023-12-31T12:50:01.834Z,12.26
2023-12-31T12:52:41.054Z,12.24
2023-12-31T12:55:12.261Z,12.20
2023-12-31T12:58:10.026Z,12.17
2023-12-31T13:00:53.038Z,12.15
2023-12-31T13:03:23.210Z,12.13
2023-12-31T13:05:54.826Z,12.11
2023-12-31T13:08:22.929Z,12.09
2023-12-31T13:10:53.951Z,12.06
2023-12-31T13:13:56.151Z,12.02
2023-12-31T13:16:58.094Z,11.98
2023-12-31T13:19:41.841Z,11.93
2023-12-31T13:22:23.687Z,11.88
2023-12-31T13:25:11.602Z,11.83
2023-12-31T13:27:41.285Z,11.76
2023-12-31T13:30:27.964Z,11.68
2023-12-31T13:33:00.180Z,11.62
2023-12-31T13:35:30.404Z,11.57
2023-12-31T13:38:10.707Z,11.53
2023-12-31T13:49:37.098Z,11.35
2023-12-31T14:06:09.444Z,11.02
2023-12-31T14:10:14.711Z,10.93
2023-12-31T14:13:02.523Z,10.85
2023-12-31T14:17:08.945Z,10.77
2023-12-31T14:29:33.393Z,10.50
2023-12-31T14:32:19.702Z,10.38
2023-12-31T14:35:33.285Z,10.23
2023-12-31T14:38:57.468Z,10.13
2023-12-31T14:41:55.705Z,9.98
2023-12-31T14:44:32.884Z,9.86
2023-12-31T14:47:09.795Z,9.75
2023-12-31T14:49:45.622Z,9.64
2023-12-31T14:52:19.254Z,9.53
2023-12-31T14:55:08.870Z,9.43
2023-12-31T14:58:14.144Z,9.32
2023-12-31T15:01:52.292Z,9.20
2023-12-31T16:00:34.609Z,7.77
2023-12-31T16:03:05.270Z,7.70
2023-12-31T17:46:38.730Z,6.52
2023-12-31T17:49:37.162Z,6.54
2023-12-31T18:09:27.666Z,6.52
2023-12-31T18:25:55.544Z,6.29
2023-12-31T19:23:53.270Z,6.93
2023-12-31T19:33:37.250Z,6.94
2023-12-31T19:54:07.072Z,7.24
2023-12-31T21:23:04.573Z,7.71
2023-12-31T21:57:42.310Z,7.57
2023-12-31T22:00:27.153Z,7.66
2023-12-31T22:03:04.060Z,7.74
2023-12-31T23:19:48.163Z,8.87
2023-12-31T23:45:35.068Z,9.12
